Aviation Digital Data Service (ADDS)

Output produced by METARs form (1230 UTC 01 November 2014)
found at http://aviationweather.gov/adds/metars/
 
KRDU 011135Z 0112/0212 03008KT 5SM -SHRA BR SCT020 OVC035 
     FM011500 01012G20KT P6SM SCT015 OVC025 
     FM012000 35018G28KT 6SM -SHRA SCT010 OVC025 
     FM020300 33015G25KT P6SM BKN025 
     FM020600 33012G19KT P6SM SKC